createdAt,value
2022-08-20T00:02:16.707Z,22.20
2022-08-20T00:04:45.494Z,22.20
2022-08-20T00:07:14.282Z,22.20
2022-08-20T00:09:43.062Z,22.20
2022-08-20T00:12:17.336Z,22.20
2022-08-20T00:14:47.138Z,22.10
2022-08-20T00:17:15.809Z,22.10
2022-08-20T00:19:44.143Z,22.10
2022-08-20T00:22:13.682Z,22.10
2022-08-20T00:24:42.152Z,22.10
2022-08-20T00:27:10.529Z,22.10
2022-08-20T00:29:38.877Z,22.10
2022-08-20T00:32:08.878Z,22.10
2022-08-20T00:34:37.253Z,22.10
2022-08-20T00:37:05.828Z,22.00
2022-08-20T00:39:34.208Z,22.00
2022-08-20T00:42:02.829Z,22.00
2022-08-20T00:44:31.185Z,22.00
2022-08-20T00:46:59.733Z,21.90
2022-08-20T00:49:32.045Z,21.90
2022-08-20T00:52:04.816Z,22.00
2022-08-20T00:54:39.283Z,21.90
2022-08-20T00:57:10.865Z,21.90
2022-08-20T00:59:41.706Z,21.90
2022-08-20T01:02:15.342Z,21.90
2022-08-20T01:04:48.481Z,21.90
2022-08-20T01:07:20.599Z,21.90
2022-08-20T01:09:58.545Z,21.90
2022-08-20T01:12:28.364Z,21.80
2022-08-20T01:14:58.542Z,21.80
2022-08-20T01:17:30.010Z,21.80
2022-08-20T01:20:03.162Z,21.80
2022-08-20T01:22:57.223Z,21.80
2022-08-20T01:25:31.817Z,21.80
2022-08-20T01:28:01.937Z,21.80
2022-08-20T01:30:33.957Z,21.80
2022-08-20T01:33:02.766Z,21.70
2022-08-20T01:35:31.431Z,21.70
2022-08-20T01:37:59.737Z,21.70
2022-08-20T01:40:45.715Z,21.70
2022-08-20T01:43:15.766Z,21.70
2022-08-20T01:45:45.862Z,21.70
2022-08-20T01:48:19.006Z,21.70
2022-08-20T01:50:57.039Z,21.70
2022-08-20T01:53:33.608Z,21.70
2022-08-20T01:56:03.017Z,21.70
2022-08-20T01:58:33.857Z,21.60
2022-08-20T02:01:02.318Z,21.60
2022-08-20T02:03:36.591Z,21.60
2022-08-20T02:06:07.117Z,21.60
2022-08-20T02:08:35.421Z,21.60
2022-08-20T02:11:03.876Z,21.60
2022-08-20T02:13:33.790Z,21.60
2022-08-20T02:16:02.141Z,21.60
2022-08-20T02:18:30.435Z,21.50
2022-08-20T02:20:58.853Z,21.60
2022-08-20T02:23:27.612Z,21.50
2022-08-20T02:25:56.542Z,21.50
2022-08-20T02:28:25.002Z,21.50
2022-08-20T02:30:56.468Z,21.50
2022-08-20T02:33:25.450Z,21.50
2022-08-20T02:35:56.545Z,21.50
2022-08-20T02:38:25.524Z,21.50
2022-08-20T02:40:53.855Z,21.50
2022-08-20T02:43:22.210Z,21.50
2022-08-20T02:45:51.726Z,21.40
2022-08-20T02:48:23.206Z,21.40
2022-08-20T02:50:54.332Z,21.40
2022-08-20T02:53:23.512Z,21.40
2022-08-20T02:55:52.493Z,21.40
2022-08-20T02:58:21.613Z,21.40
2022-08-20T03:00:50.710Z,21.40
2022-08-20T03:03:22.911Z,21.40
2022-08-20T03:05:54.868Z,21.40
2022-08-20T03:08:23.816Z,21.40
2022-08-20T03:10:52.530Z,21.30
2022-08-20T03:13:22.349Z,21.30
2022-08-20T03:15:58.072Z,21.30
2022-08-20T03:18:32.065Z,21.30
2022-08-20T03:21:00.516Z,21.30
2022-08-20T03:23:29.669Z,21.30
2022-08-20T03:25:58.423Z,21.30
2022-08-20T03:28:26.926Z,21.30
2022-08-20T03:30:56.593Z,21.30
2022-08-20T03:33:24.934Z,21.30
2022-08-20T03:35:54.823Z,21.30
2022-08-20T03:38:32.491Z,21.30
2022-08-20T03:41:02.209Z,21.30
2022-08-20T03:43:31.114Z,21.20
2022-08-20T03:45:59.625Z,21.20
2022-08-20T03:48:28.212Z,21.20
2022-08-20T03:51:00.891Z,21.20
2022-08-20T03:53:31.636Z,21.20
2022-08-20T03:56:03.748Z,21.20
2022-08-20T03:58:35.948Z,21.20
2022-08-20T04:01:06.410Z,21.20
2022-08-20T04:03:35.365Z,21.10
2022-08-20T04:06:05.351Z,21.10
2022-08-20T04:08:34.198Z,21.10
2022-08-20T04:11:02.577Z,21.10
2022-08-20T04:13:32.167Z,21.10
2022-08-20T04:16:03.660Z,21.10
2022-08-20T04:18:33.127Z,21.10
2022-08-20T04:21:01.459Z,21.10
2022-08-20T04:23:31.317Z,21.10
2022-08-20T04:26:01.554Z,21.00
2022-08-20T04:28:30.311Z,21.00
2022-08-20T04:31:00.741Z,21.00
2022-08-20T04:33:34.016Z,21.00
2022-08-20T04:36:06.420Z,21.00
2022-08-20T04:38:49.868Z,21.00
2022-08-20T04:41:22.836Z,21.00
2022-08-20T04:43:53.184Z,21.00
2022-08-20T04:46:23.709Z,21.00
2022-08-20T04:48:52.073Z,21.00
2022-08-20T04:51:22.866Z,20.90
2022-08-20T04:53:54.608Z,20.90
2022-08-20T04:56:26.092Z,20.90
2022-08-20T04:58:55.868Z,20.90
2022-08-20T05:01:26.168Z,20.90
2022-08-20T05:03:55.839Z,20.90
2022-08-20T05:06:26.277Z,20.90
2022-08-20T05:08:58.039Z,20.90
2022-08-20T05:11:34.409Z,20.90
2022-08-20T05:14:06.073Z,20.90
2022-08-20T05:16:39.191Z,20.90
2022-08-20T05:19:09.092Z,20.90
2022-08-20T05:21:38.206Z,20.90
2022-08-20T05:24:12.977Z,20.80
2022-08-20T05:26:41.646Z,20.80
2022-08-20T05:29:09.947Z,20.80
2022-08-20T05:31:39.423Z,20.80
2022-08-20T05:34:13.186Z,20.80
2022-08-20T05:36:43.055Z,20.90
2022-08-20T05:39:13.550Z,20.80
2022-08-20T05:41:42.317Z,20.80
2022-08-20T05:44:13.753Z,20.80
2022-08-20T05:46:44.571Z,20.90
2022-08-20T05:49:15.250Z,20.80
2022-08-20T05:51:43.761Z,20.80
2022-08-20T05:54:14.545Z,20.90
2022-08-20T05:56:43.391Z,20.80
2022-08-20T05:59:12.660Z,20.90
2022-08-20T06:01:43.006Z,20.80
2022-08-20T06:04:28.181Z,20.90
2022-08-20T06:07:02.534Z,20.90
2022-08-20T06:09:33.509Z,20.90
2022-08-20T06:12:03.399Z,20.90
2022-08-20T06:14:32.707Z,20.90
2022-08-20T06:17:06.387Z,20.90
2022-08-20T06:19:35.675Z,20.90
2022-08-20T06:22:17.872Z,20.90
2022-08-20T06:24:51.332Z,20.90
2022-08-20T06:27:20.545Z,20.90
2022-08-20T06:29:49.728Z,20.90
2022-08-20T06:32:28.797Z,20.90
2022-08-20T06:35:02.025Z,20.90
2022-08-20T06:37:31.954Z,20.90
2022-08-20T06:40:06.782Z,20.90
2022-08-20T06:42:35.277Z,20.90
2022-08-20T06:45:05.827Z,20.90
2022-08-20T06:47:34.806Z,21.00
2022-08-20T06:50:03.193Z,20.90
2022-08-20T06:52:51.650Z,20.90
2022-08-20T06:55:22.214Z,21.00
2022-08-20T06:57:58.233Z,21.00
2022-08-20T07:00:27.612Z,21.00
2022-08-20T07:02:56.168Z,21.00
2022-08-20T07:05:24.791Z,21.00
2022-08-20T07:07:53.165Z,21.00
2022-08-20T07:10:25.333Z,21.00
2022-08-20T07:12:54.023Z,21.00
2022-08-20T07:15:25.938Z,21.00
2022-08-20T07:18:01.419Z,21.00
2022-08-20T07:20:31.890Z,21.00
2022-08-20T07:23:01.006Z,21.10
2022-08-20T07:25:33.717Z,21.00
2022-08-20T07:28:05.829Z,21.10
2022-08-20T07:30:56.137Z,21.10
2022-08-20T07:33:26.118Z,21.10
2022-08-20T07:35:56.948Z,21.10
2022-08-20T07:38:27.043Z,21.10
2022-08-20T07:41:02.666Z,21.10
2022-08-20T07:43:31.945Z,21.10
2022-08-20T07:46:03.178Z,21.10
2022-08-20T07:48:32.752Z,21.10
2022-08-20T07:51:03.059Z,21.10
2022-08-20T07:53:35.989Z,21.20
2022-08-20T07:56:08.534Z,21.20
2022-08-20T07:58:38.415Z,21.20
2022-08-20T08:01:08.483Z,21.20
2022-08-20T08:03:49.206Z,21.20
2022-08-20T08:06:29.554Z,21.20
2022-08-20T08:09:01.184Z,21.20
2022-08-20T08:11:32.903Z,21.20
2022-08-20T08:14:01.884Z,21.20
2022-08-20T08:16:32.677Z,21.30
2022-08-20T08:19:02.278Z,21.30
2022-08-20T08:21:32.247Z,21.20
2022-08-20T08:24:01.499Z,21.20
2022-08-20T08:26:31.263Z,21.30
2022-08-20T08:28:59.747Z,21.30
2022-08-20T08:31:28.105Z,21.30
2022-08-20T08:33:56.531Z,21.30
2022-08-20T08:36:26.933Z,21.30
2022-08-20T08:38:56.785Z,21.30
2022-08-20T08:41:32.101Z,21.30
2022-08-20T08:44:11.048Z,21.40
2022-08-20T08:46:42.582Z,21.40
2022-08-20T08:49:14.553Z,21.40
2022-08-20T08:51:46.660Z,21.40
2022-08-20T08:54:18.063Z,21.40
2022-08-20T08:56:50.109Z,21.40
2022-08-20T08:59:21.651Z,21.40
2022-08-20T09:01:54.186Z,21.50
2022-08-20T09:04:31.840Z,21.50
2022-08-20T09:07:02.936Z,21.50
2022-08-20T09:09:33.958Z,21.50
2022-08-20T09:12:07.976Z,21.50
2022-08-20T09:14:38.211Z,21.60
2022-08-20T09:17:07.085Z,21.60
2022-08-20T09:19:35.469Z,21.60
2022-08-20T09:22:09.794Z,21.60
2022-08-20T09:24:38.513Z,21.60
2022-08-20T09:27:11.214Z,21.60
2022-08-20T09:29:41.628Z,21.60
2022-08-20T09:32:12.406Z,21.70
2022-08-20T09:34:44.616Z,21.70
2022-08-20T09:37:13.884Z,21.70
2022-08-20T09:39:43.214Z,21.70
2022-08-20T09:42:13.123Z,21.70
2022-08-20T09:44:43.378Z,21.70
2022-08-20T09:47:12.355Z,21.80
2022-08-20T09:49:41.164Z,21.80
2022-08-20T09:52:12.085Z,21.80
2022-08-20T09:54:46.306Z,21.80
2022-08-20T09:57:16.962Z,21.80
2022-08-20T09:59:49.395Z,21.80
2022-08-20T10:02:17.708Z,21.80
2022-08-20T10:04:46.202Z,21.90
2022-08-20T10:07:16.416Z,22.00
2022-08-20T10:09:44.988Z,22.00
2022-08-20T10:12:13.520Z,22.00
2022-08-20T10:14:41.837Z,22.10
2022-08-20T10:17:11.852Z,22.10
2022-08-20T10:19:40.208Z,22.20
2022-08-20T10:22:08.535Z,22.30
2022-08-20T10:24:37.181Z,22.30
2022-08-20T10:27:05.831Z,22.30
2022-08-20T10:29:34.249Z,22.30
2022-08-20T10:32:12.543Z,22.30
2022-08-20T10:34:42.357Z,22.30
2022-08-20T10:37:11.870Z,22.30
2022-08-20T10:39:40.286Z,22.30
2022-08-20T10:42:08.806Z,22.30
2022-08-20T10:44:37.197Z,22.30
2022-08-20T10:47:18.914Z,22.40
2022-08-20T10:49:47.303Z,22.40
2022-08-20T10:52:15.608Z,22.40
2022-08-20T10:54:44.166Z,22.40
2022-08-20T10:57:16.011Z,22.40
2022-08-20T10:59:45.821Z,22.50
2022-08-20T11:02:14.525Z,22.50
2022-08-20T11:04:44.586Z,22.60
2022-08-20T11:07:15.771Z,22.70
2022-08-20T11:09:44.401Z,22.60
2022-08-20T11:12:13.307Z,22.70
2022-08-20T11:14:41.820Z,22.60
2022-08-20T11:17:10.934Z,22.70
2022-08-20T11:19:45.424Z,22.60
2022-08-20T11:22:13.753Z,22.70
2022-08-20T11:24:42.068Z,22.70
2022-08-20T11:27:21.242Z,22.80
2022-08-20T11:29:49.579Z,22.80
2022-08-20T11:32:17.897Z,22.80
2022-08-20T11:34:47.813Z,22.80
2022-08-20T11:37:17.176Z,22.80
2022-08-20T11:39:45.513Z,22.80
2022-08-20T11:42:15.044Z,22.90
2022-08-20T11:44:43.709Z,23.00
2022-08-20T11:47:22.999Z,23.00
2022-08-20T11:50:01.328Z,23.00
2022-08-20T11:52:30.382Z,23.10
2022-08-20T11:55:00.554Z,23.10
2022-08-20T11:57:31.666Z,23.20
2022-08-20T12:00:07.481Z,23.20
2022-08-20T12:02:37.252Z,23.20
2022-08-20T12:05:08.464Z,23.20
2022-08-20T12:07:38.044Z,23.30
2022-08-20T12:10:07.629Z,23.30
2022-08-20T12:12:37.376Z,23.40
2022-08-20T12:15:08.656Z,23.40
2022-08-20T12:17:39.011Z,23.40
2022-08-20T12:20:13.272Z,23.40
2022-08-20T12:22:41.890Z,23.40
2022-08-20T12:25:10.857Z,23.40
2022-08-20T12:27:40.390Z,23.50
2022-08-20T12:30:11.943Z,23.50
2022-08-20T12:32:40.641Z,23.50
2022-08-20T12:35:12.030Z,23.60
2022-08-20T12:37:41.341Z,23.60
2022-08-20T12:40:14.644Z,23.70
2022-08-20T12:42:43.467Z,23.80
2022-08-20T12:45:12.625Z,23.80
2022-08-20T12:47:44.987Z,23.80
2022-08-20T12:50:18.307Z,23.80
2022-08-20T12:52:48.241Z,23.90
2022-08-20T12:55:20.030Z,23.90
2022-08-20T12:57:50.259Z,24.00
2022-08-20T13:00:22.738Z,24.00
2022-08-20T13:02:54.396Z,24.00
2022-08-20T13:05:24.966Z,24.00
2022-08-20T13:07:53.901Z,24.00
2022-08-20T13:10:24.153Z,24.00
2022-08-20T13:12:52.793Z,24.00
2022-08-20T13:15:22.256Z,24.00
2022-08-20T13:17:53.604Z,24.00
2022-08-20T13:20:25.757Z,24.00
2022-08-20T13:22:59.501Z,24.00
2022-08-20T13:25:28.076Z,24.00
2022-08-20T13:28:05.088Z,24.00
2022-08-20T13:30:35.366Z,24.00
2022-08-20T13:33:03.835Z,24.00
2022-08-20T13:35:33.931Z,23.90
2022-08-20T13:38:02.313Z,23.90
2022-08-20T13:40:30.706Z,23.90
2022-08-20T13:43:02.196Z,23.90
2022-08-20T13:45:34.494Z,23.90
2022-08-20T13:48:02.825Z,23.90
2022-08-20T13:50:34.393Z,23.80
2022-08-20T13:53:02.844Z,23.80
2022-08-20T13:55:31.298Z,23.80
2022-08-20T13:58:06.000Z,23.80
2022-08-20T14:00:35.913Z,23.80
2022-08-20T14:03:05.824Z,23.80
2022-08-20T14:05:36.119Z,23.70
2022-08-20T14:08:10.155Z,23.70
2022-08-20T14:10:38.877Z,23.70
2022-08-20T14:13:09.512Z,23.70
2022-08-20T14:15:41.626Z,23.70
2022-08-20T14:18:09.934Z,23.70
2022-08-20T14:20:39.850Z,23.70
2022-08-20T14:23:09.614Z,23.70
2022-08-20T14:25:38.290Z,23.70
2022-08-20T14:28:13.629Z,23.70
2022-08-20T14:30:42.531Z,23.70
2022-08-20T14:33:11.009Z,23.70
2022-08-20T14:35:40.993Z,23.70
2022-08-20T14:38:09.798Z,23.70
2022-08-20T14:40:38.244Z,23.70
2022-08-20T14:43:06.670Z,23.70
2022-08-20T14:45:34.996Z,23.50
2022-08-20T14:48:03.396Z,23.40
2022-08-20T14:50:34.934Z,23.30
2022-08-20T14:53:04.771Z,23.40
2022-08-20T14:55:35.985Z,23.50
2022-08-20T14:58:08.411Z,23.40
2022-08-20T15:00:36.814Z,23.30
2022-08-20T15:03:05.419Z,23.20
2022-08-20T15:05:34.583Z,23.20
2022-08-20T15:08:10.540Z,23.10
2022-08-20T15:10:40.042Z,23.10
2022-08-20T15:13:08.824Z,23.10
2022-08-20T15:15:37.219Z,23.10
2022-08-20T15:18:05.621Z,23.00
2022-08-20T15:20:35.579Z,23.10
2022-08-20T15:23:05.192Z,23.10
2022-08-20T15:25:38.043Z,23.00
2022-08-20T15:28:09.329Z,23.00
2022-08-20T15:30:39.516Z,23.00
2022-08-20T15:33:08.276Z,23.00
2022-08-20T15:35:37.217Z,23.00
2022-08-20T15:38:05.856Z,22.90
2022-08-20T15:40:35.673Z,22.90
2022-08-20T15:43:05.566Z,22.90
2022-08-20T15:45:35.029Z,22.90
2022-08-20T15:48:09.449Z,22.90
2022-08-20T15:51:00.581Z,22.90
2022-08-20T15:53:35.811Z,22.90
2022-08-20T15:56:16.550Z,22.90
2022-08-20T15:58:52.689Z,22.90
2022-08-20T16:01:28.709Z,22.90
2022-08-20T16:04:31.675Z,22.90
2022-08-20T16:07:07.009Z,22.90
2022-08-20T16:09:54.974Z,22.80
2022-08-20T16:12:33.490Z,22.80
2022-08-20T16:15:03.631Z,22.90
2022-08-20T16:17:36.081Z,22.80
2022-08-20T16:20:09.824Z,22.90
2022-08-20T16:22:42.100Z,23.00
2022-08-20T16:25:11.317Z,23.00
2022-08-20T16:27:50.641Z,23.00
2022-08-20T16:30:22.073Z,23.00
2022-08-20T16:32:55.738Z,23.00
2022-08-20T16:35:31.557Z,23.00
2022-08-20T16:38:08.030Z,23.10
2022-08-20T16:40:44.440Z,23.10
2022-08-20T16:43:24.578Z,23.00
2022-08-20T16:45:57.064Z,22.90
2022-08-20T16:48:34.291Z,22.90
2022-08-20T16:51:07.329Z,22.90
2022-08-20T16:53:36.847Z,22.90
2022-08-20T16:56:06.201Z,22.80
2022-08-20T16:58:36.232Z,22.80
2022-08-20T17:01:12.579Z,22.80
2022-08-20T17:03:49.798Z,22.80
2022-08-20T17:06:26.383Z,22.80
2022-08-20T17:08:55.251Z,22.80
2022-08-20T17:11:26.792Z,22.80
2022-08-20T17:14:10.541Z,22.80
2022-08-20T17:16:41.840Z,22.80
2022-08-20T17:19:16.785Z,22.70
2022-08-20T17:21:45.672Z,22.80
2022-08-20T17:24:24.724Z,22.70
2022-08-20T17:26:59.603Z,22.80
2022-08-20T17:29:31.579Z,22.70
2022-08-20T17:32:02.096Z,22.70
2022-08-20T17:34:33.603Z,22.70
2022-08-20T17:37:09.662Z,22.60
2022-08-20T17:39:47.541Z,22.60
2022-08-20T17:42:19.360Z,22.50
2022-08-20T17:44:53.134Z,22.50
2022-08-20T17:47:27.880Z,22.40
2022-08-20T17:50:03.250Z,22.40
2022-08-20T17:52:39.098Z,22.40
2022-08-20T17:55:09.752Z,22.40
2022-08-20T17:57:41.333Z,22.30
2022-08-20T18:00:15.441Z,22.20
2022-08-20T18:02:44.302Z,22.10
2022-08-20T18:05:19.364Z,22.20
2022-08-20T18:08:04.620Z,22.40
2022-08-20T18:10:36.765Z,22.50
2022-08-20T18:13:14.341Z,22.60
2022-08-20T18:15:50.708Z,22.70
2022-08-20T18:18:28.451Z,22.70
2022-08-20T18:21:15.669Z,22.80
2022-08-20T18:23:48.829Z,22.80
2022-08-20T18:26:25.103Z,22.80
2022-08-20T18:28:57.842Z,22.90
2022-08-20T18:31:32.203Z,22.80
2022-08-20T18:34:11.903Z,22.80
2022-08-20T18:36:41.606Z,22.80
2022-08-20T18:39:12.531Z,22.90
2022-08-20T18:41:44.898Z,22.80
2022-08-20T18:44:16.057Z,22.80
2022-08-20T18:46:56.266Z,22.80
2022-08-20T18:49:30.367Z,22.80
2022-08-20T18:51:59.881Z,22.80
2022-08-20T18:54:33.914Z,22.80
2022-08-20T18:57:08.184Z,22.80
2022-08-20T18:59:43.294Z,22.80
2022-08-20T19:02:25.319Z,22.70
2022-08-20T19:04:59.665Z,22.70
2022-08-20T19:07:48.335Z,22.70
2022-08-20T19:10:45.259Z,22.70
2022-08-20T19:13:52.608Z,22.60
2022-08-20T19:16:26.469Z,22.60
2022-08-20T19:18:57.165Z,22.60
2022-08-20T19:21:29.021Z,22.60
2022-08-20T19:24:00.900Z,22.60
2022-08-20T19:26:32.492Z,22.50
2022-08-20T19:29:03.641Z,22.50
2022-08-20T19:31:34.667Z,22.50
2022-08-20T19:34:19.842Z,22.50
2022-08-20T19:36:55.411Z,22.50
2022-08-20T19:39:25.515Z,22.40
2022-08-20T19:42:00.052Z,22.40
2022-08-20T19:44:36.248Z,22.40
2022-08-20T19:47:06.154Z,22.40
2022-08-20T19:49:45.247Z,22.40
2022-08-20T19:52:37.354Z,22.40
2022-08-20T19:55:06.215Z,22.30
2022-08-20T19:57:34.598Z,22.30
2022-08-20T20:00:10.553Z,22.30
2022-08-20T20:02:39.204Z,22.30
2022-08-20T20:05:10.949Z,22.20
2022-08-20T20:07:42.049Z,22.20
2022-08-20T20:10:21.195Z,22.20
2022-08-20T20:12:49.904Z,22.20
2022-08-20T20:15:18.843Z,22.10
2022-08-20T20:17:47.575Z,22.10
2022-08-20T20:20:26.493Z,22.10
2022-08-20T20:22:57.779Z,22.10
2022-08-20T20:25:40.755Z,22.00
2022-08-20T20:28:13.256Z,22.10
2022-08-20T20:30:42.504Z,22.00
2022-08-20T20:33:17.624Z,22.00
2022-08-20T20:35:47.860Z,22.00
2022-08-20T20:38:26.716Z,22.00
2022-08-20T20:40:57.490Z,21.90
2022-08-20T20:43:32.388Z,21.90
2022-08-20T20:46:09.437Z,21.90
2022-08-20T20:48:48.437Z,21.90
2022-08-20T20:51:23.991Z,21.90
2022-08-20T20:53:55.080Z,21.80
2022-08-20T20:56:30.588Z,21.80
2022-08-20T20:59:02.544Z,21.80
2022-08-20T21:01:45.644Z,21.80
2022-08-20T21:04:18.375Z,21.80
2022-08-20T21:06:48.253Z,21.80
2022-08-20T21:09:16.874Z,21.80
2022-08-20T21:11:45.313Z,21.70
2022-08-20T21:14:13.667Z,21.70
2022-08-20T21:16:42.478Z,21.70
2022-08-20T21:19:11.593Z,21.70
2022-08-20T21:21:40.303Z,21.70
2022-08-20T21:24:10.576Z,21.70
2022-08-20T21:26:39.809Z,21.60
2022-08-20T21:29:10.014Z,21.70
2022-08-20T21:31:43.649Z,21.60
2022-08-20T21:34:13.189Z,21.60
2022-08-20T21:36:41.650Z,21.60
2022-08-20T21:39:12.358Z,21.60
2022-08-20T21:41:42.755Z,21.60
2022-08-20T21:44:21.954Z,21.60
2022-08-20T21:46:50.419Z,21.60
2022-08-20T21:49:19.702Z,21.60
2022-08-20T21:51:48.157Z,21.60
2022-08-20T21:54:18.146Z,21.60
2022-08-20T21:56:49.598Z,21.50
2022-08-20T21:59:21.020Z,21.50
2022-08-20T22:01:49.542Z,21.50
2022-08-20T22:04:18.520Z,21.50
2022-08-20T22:06:47.099Z,21.50
2022-08-20T22:09:15.620Z,21.50
2022-08-20T22:11:45.478Z,21.50
2022-08-20T22:14:16.488Z,21.40
2022-08-20T22:16:45.509Z,21.40
2022-08-20T22:19:16.245Z,21.40
2022-08-20T22:21:45.182Z,21.40
2022-08-20T22:24:15.175Z,21.40
2022-08-20T22:26:45.178Z,21.40
2022-08-20T22:29:14.077Z,21.40
2022-08-20T22:31:44.616Z,21.40
2022-08-20T22:34:14.332Z,21.40
2022-08-20T22:36:42.992Z,21.30
2022-08-20T22:39:11.672Z,21.30
2022-08-20T22:41:40.802Z,21.30
2022-08-20T22:44:10.614Z,21.30
2022-08-20T22:46:47.034Z,21.30
2022-08-20T22:49:19.606Z,21.30
2022-08-20T22:51:48.073Z,21.30
2022-08-20T22:54:22.298Z,21.20
2022-08-20T22:56:51.124Z,21.20
2022-08-20T22:59:23.424Z,21.30
2022-08-20T23:01:52.488Z,21.20
2022-08-20T23:04:26.377Z,21.30
2022-08-20T23:06:55.482Z,21.20
2022-08-20T23:09:24.189Z,21.20
2022-08-20T23:11:53.390Z,21.20
2022-08-20T23:14:23.773Z,21.20
2022-08-20T23:17:00.482Z,21.20
2022-08-20T23:19:28.981Z,21.10
2022-08-20T23:21:57.418Z,21.10
2022-08-20T23:24:26.022Z,21.10
2022-08-20T23:26:54.531Z,21.10
2022-08-20T23:29:25.867Z,21.10
2022-08-20T23:31:55.357Z,21.10
2022-08-20T23:34:23.747Z,21.10
2022-08-20T23:36:53.065Z,21.00
2022-08-20T23:39:21.885Z,21.00
2022-08-20T23:41:50.277Z,21.00
2022-08-20T23:44:25.958Z,21.00
2022-08-20T23:46:58.294Z,20.90
2022-08-20T23:49:27.122Z,20.90
2022-08-20T23:51:55.809Z,20.90
2022-08-20T23:54:24.450Z,20.90
2022-08-20T23:56:57.065Z,20.90
2022-08-20T23:59:26.609Z,20.90
